createdAt,value
2024-03-06T00:00:23.945Z,9.58
2024-03-06T00:02:51.040Z,9.65
2024-03-06T00:05:17.990Z,9.55
2024-03-06T00:07:44.723Z,9.63
2024-03-06T00:10:11.538Z,9.63
2024-03-06T00:12:38.229Z,9.65
2024-03-06T00:15:05.317Z,9.58
2024-03-06T00:17:32.416Z,9.76
2024-03-06T00:19:59.250Z,9.71
2024-03-06T00:22:26.178Z,9.68
2024-03-06T00:24:53.172Z,9.72
2024-03-06T00:27:20.031Z,9.55
2024-03-06T00:29:46.953Z,9.45
2024-03-06T00:32:13.792Z,9.55
2024-03-06T00:34:40.734Z,9.67
2024-03-06T00:37:08.213Z,9.55
2024-03-06T00:39:34.904Z,9.63
2024-03-06T00:42:01.711Z,9.46
2024-03-06T00:44:28.452Z,9.27
2024-03-06T00:46:55.172Z,9.33
2024-03-06T00:49:21.987Z,9.32
2024-03-06T00:51:49.784Z,9.23
2024-03-06T00:54:17.710Z,9.25
2024-03-06T00:56:44.682Z,9.25
2024-03-06T00:59:11.928Z,9.18
2024-03-06T01:01:38.980Z,9.16
2024-03-06T01:04:05.882Z,9.18
2024-03-06T01:06:32.649Z,9.09
2024-03-06T01:08:59.711Z,9.01
2024-03-06T01:11:27.843Z,9.05
2024-03-06T01:13:55.088Z,9.02
2024-03-06T01:16:21.968Z,9.07
2024-03-06T01:18:49.076Z,9.05
2024-03-06T01:21:16.002Z,9.04
2024-03-06T01:23:42.736Z,9.00
2024-03-06T01:26:09.575Z,9.00
2024-03-06T01:28:38.150Z,9.08
2024-03-06T01:31:05.157Z,9.00
2024-03-06T01:33:32.016Z,9.08
2024-03-06T01:35:58.858Z,9.11
2024-03-06T01:38:25.622Z,8.95
2024-03-06T01:40:52.370Z,8.77
2024-03-06T01:43:26.891Z,8.89
2024-03-06T01:45:54.557Z,8.94
2024-03-06T01:48:23.188Z,8.94
2024-03-06T01:50:50.192Z,8.95
2024-03-06T01:53:17.896Z,8.99
2024-03-06T01:55:44.895Z,8.98
2024-03-06T01:58:11.745Z,8.86
2024-03-06T02:00:38.824Z,8.75
2024-03-06T02:03:05.825Z,8.69
2024-03-06T02:05:33.488Z,8.69
2024-03-06T02:08:00.971Z,8.79
2024-03-06T02:10:31.279Z,8.74
2024-03-06T02:12:59.173Z,8.65
2024-03-06T02:15:25.997Z,8.82
2024-03-06T02:17:54.447Z,8.75
2024-03-06T02:20:25.925Z,8.83
2024-03-06T02:22:53.114Z,8.84
2024-03-06T02:25:20.846Z,8.79
2024-03-06T02:27:49.701Z,8.72
2024-03-06T02:30:20.915Z,8.70
2024-03-06T02:32:47.755Z,8.70
2024-03-06T02:35:15.310Z,8.59
2024-03-06T02:37:45.153Z,8.57
2024-03-06T02:40:12.958Z,8.52
2024-03-06T02:42:40.123Z,8.60
2024-03-06T02:45:08.840Z,8.57
2024-03-06T02:47:35.817Z,8.64
2024-03-06T02:50:02.847Z,8.68
2024-03-06T02:52:29.696Z,8.65
2024-03-06T02:54:56.868Z,8.58
2024-03-06T02:57:23.584Z,8.60
2024-03-06T02:59:51.286Z,8.64
2024-03-06T03:02:18.158Z,8.67
2024-03-06T03:04:45.340Z,8.58
2024-03-06T03:07:13.452Z,8.50
2024-03-06T03:09:40.312Z,8.39
2024-03-06T03:12:07.299Z,8.48
2024-03-06T03:14:34.371Z,8.37
2024-03-06T03:17:02.173Z,8.38
2024-03-06T03:19:28.997Z,8.22
2024-03-06T03:21:55.894Z,8.48
2024-03-06T03:24:23.017Z,8.43
2024-03-06T03:26:49.823Z,8.43
2024-03-06T03:29:16.796Z,8.40
2024-03-06T03:31:43.908Z,8.32
2024-03-06T03:34:11.635Z,8.33
2024-03-06T03:36:44.708Z,8.28
2024-03-06T03:39:16.961Z,8.26
2024-03-06T03:41:45.039Z,8.20
2024-03-06T03:44:11.814Z,8.17
2024-03-06T03:46:39.203Z,8.09
2024-03-06T03:49:05.983Z,7.95
2024-03-06T03:51:32.780Z,7.98
2024-03-06T03:53:59.460Z,7.99
2024-03-06T03:56:26.289Z,7.72
2024-03-06T03:58:53.033Z,7.49
2024-03-06T04:01:19.844Z,7.87
2024-03-06T04:03:46.625Z,7.78
2024-03-06T04:06:13.381Z,7.90
2024-03-06T04:08:40.037Z,7.83
2024-03-06T04:11:06.811Z,7.92
2024-03-06T04:13:37.027Z,7.74
2024-03-06T04:16:04.236Z,7.56
2024-03-06T04:18:34.585Z,7.60
2024-03-06T04:21:06.341Z,7.65
2024-03-06T04:23:34.025Z,7.72
2024-03-06T04:26:01.621Z,7.66
2024-03-06T04:28:28.640Z,7.62
2024-03-06T04:30:55.528Z,7.70
2024-03-06T04:33:22.431Z,7.80
2024-03-06T04:35:49.290Z,7.85
2024-03-06T04:38:16.139Z,7.88
2024-03-06T04:40:43.175Z,7.67
2024-03-06T04:43:10.091Z,7.69
2024-03-06T04:45:36.817Z,7.76
2024-03-06T04:48:03.788Z,7.81
2024-03-06T04:50:30.714Z,7.79
2024-03-06T04:52:57.528Z,7.70
2024-03-06T04:55:26.281Z,7.75
2024-03-06T04:57:54.521Z,7.82
2024-03-06T05:00:21.300Z,7.88
2024-03-06T06:00:23.186Z,8.09
2024-03-06T06:02:50.099Z,8.13
2024-03-06T06:05:23.184Z,8.14
2024-03-06T06:07:54.169Z,8.00
2024-03-06T06:10:22.421Z,8.14
2024-03-06T06:12:50.451Z,8.17
2024-03-06T06:15:17.601Z,8.15
2024-03-06T06:17:46.355Z,8.28
2024-03-06T06:20:17.085Z,8.32
2024-03-06T06:22:45.479Z,8.13
2024-03-06T06:25:12.442Z,7.78
2024-03-06T06:27:40.188Z,7.65
2024-03-06T06:30:11.500Z,7.93
2024-03-06T06:32:39.460Z,8.29
2024-03-06T06:35:06.508Z,8.48
2024-03-06T06:37:33.483Z,8.51
2024-03-06T06:40:00.667Z,8.62
2024-03-06T06:42:27.390Z,8.83
2024-03-06T06:44:54.555Z,8.89
2024-03-06T06:47:21.435Z,9.03
2024-03-06T06:49:48.309Z,9.16
2024-03-06T06:52:15.705Z,9.32
2024-03-06T06:54:42.757Z,9.43
2024-03-06T06:57:09.747Z,9.50
2024-03-06T06:59:36.587Z,9.54
2024-03-06T07:02:04.123Z,9.62
2024-03-06T07:04:30.972Z,9.72
2024-03-06T07:06:57.698Z,9.72
2024-03-06T07:09:24.666Z,9.92
2024-03-06T07:11:52.046Z,10.01
2024-03-06T07:14:18.990Z,10.27
2024-03-06T07:16:46.709Z,10.29
2024-03-06T07:19:13.865Z,10.56
2024-03-06T07:21:40.683Z,10.55
2024-03-06T07:24:07.460Z,10.62
2024-03-06T07:26:35.448Z,10.44
2024-03-06T07:29:03.156Z,10.92
2024-03-06T07:31:30.186Z,11.19
2024-03-06T07:33:56.858Z,11.32
2024-03-06T07:36:23.680Z,11.50
2024-03-06T07:38:50.533Z,11.86
2024-03-06T07:41:17.614Z,11.87
2024-03-06T07:43:44.671Z,11.95
2024-03-06T07:46:12.403Z,12.12
2024-03-06T07:48:39.863Z,12.15
2024-03-06T07:51:06.963Z,12.25
2024-03-06T07:53:33.780Z,12.35
2024-03-06T07:56:00.722Z,12.37
2024-03-06T07:58:27.576Z,11.93
2024-03-06T08:00:56.973Z,12.23
2024-03-06T08:03:25.873Z,12.29
2024-03-06T08:05:56.129Z,12.46
2024-03-06T08:08:23.462Z,12.63
2024-03-06T08:10:50.628Z,12.82
2024-03-06T08:13:17.579Z,12.97
2024-03-06T08:15:45.525Z,13.08
2024-03-06T08:18:14.255Z,13.23
2024-03-06T08:20:41.592Z,13.14
2024-03-06T08:23:09.456Z,13.31
2024-03-06T08:25:36.327Z,13.36
2024-03-06T08:28:07.260Z,13.08
2024-03-06T08:30:34.300Z,13.15
2024-03-06T08:33:01.807Z,13.02
2024-03-06T08:35:29.261Z,13.09
2024-03-06T08:37:56.070Z,13.28
2024-03-06T08:40:24.453Z,13.35
2024-03-06T08:42:51.612Z,13.53
2024-03-06T08:45:18.735Z,13.67
2024-03-06T08:47:46.568Z,13.44
2024-03-06T08:50:14.539Z,13.55
2024-03-06T08:52:42.806Z,13.70
2024-03-06T08:55:10.141Z,14.00
2024-03-06T08:57:37.162Z,13.37
2024-03-06T09:00:05.251Z,13.89
2024-03-06T09:02:32.098Z,14.25
2024-03-06T09:04:59.070Z,14.56
2024-03-06T09:07:26.993Z,14.74
2024-03-06T09:09:53.720Z,15.02
2024-03-06T09:12:20.514Z,15.22
2024-03-06T09:14:47.378Z,15.45
2024-03-06T09:17:15.884Z,15.42
2024-03-06T09:19:55.093Z,15.49
2024-03-06T09:22:30.071Z,15.59
2024-03-06T09:24:57.673Z,15.83
2024-03-06T09:27:24.563Z,16.08
2024-03-06T09:29:51.419Z,16.09
2024-03-06T09:32:20.514Z,16.42
2024-03-06T09:34:47.338Z,16.43
2024-03-06T09:37:14.077Z,16.55
2024-03-06T09:39:43.253Z,15.74
2024-03-06T09:42:09.861Z,15.58
2024-03-06T09:44:36.618Z,15.72
2024-03-06T09:47:06.753Z,15.19
2024-03-06T09:49:35.066Z,16.00
2024-03-06T09:52:04.185Z,16.53
2024-03-06T09:54:31.798Z,17.10
2024-03-06T09:57:00.153Z,17.89
2024-03-06T09:59:28.462Z,17.67
2024-03-06T10:01:57.390Z,17.37
2024-03-06T10:04:28.604Z,17.60
2024-03-06T10:07:00.205Z,17.61
2024-03-06T10:09:28.106Z,18.02
2024-03-06T10:11:57.418Z,17.77
2024-03-06T10:14:24.829Z,17.85
2024-03-06T10:16:57.380Z,18.61
2024-03-06T10:19:28.850Z,17.96
2024-03-06T10:21:56.477Z,18.52
2024-03-06T10:24:27.482Z,17.74
2024-03-06T10:26:59.189Z,18.02
2024-03-06T10:29:28.415Z,17.97
2024-03-06T10:31:58.014Z,17.79
2024-03-06T10:34:30.774Z,18.21
2024-03-06T10:37:07.232Z,19.13
2024-03-06T10:39:41.731Z,19.01
2024-03-06T10:42:09.709Z,19.91
2024-03-06T10:44:38.246Z,20.05
2024-03-06T10:47:07.222Z,20.85
2024-03-06T10:49:35.742Z,19.94
2024-03-06T10:52:08.021Z,21.15
2024-03-06T10:54:43.080Z,20.80
2024-03-06T10:57:11.641Z,19.44
2024-03-06T10:59:38.627Z,19.70
2024-03-06T11:02:05.437Z,19.83
2024-03-06T11:04:35.919Z,20.95
2024-03-06T11:07:04.370Z,20.68
2024-03-06T11:09:41.595Z,21.02
2024-03-06T11:12:08.915Z,20.72
2024-03-06T11:14:40.492Z,21.20
2024-03-06T11:17:10.715Z,21.65
2024-03-06T11:20:07.579Z,21.46
2024-03-06T11:22:59.854Z,22.06
2024-03-06T11:25:52.100Z,22.60
2024-03-06T11:28:23.097Z,22.69
2024-03-06T11:31:03.836Z,23.10
2024-03-06T11:33:41.137Z,23.25
2024-03-06T11:36:24.034Z,21.97
2024-03-06T11:39:21.196Z,22.77
2024-03-06T11:41:49.376Z,21.06
2024-03-06T11:44:22.397Z,22.27
2024-03-06T11:46:50.478Z,21.16
2024-03-06T11:49:25.665Z,21.99
2024-03-06T11:51:53.266Z,22.34
2024-03-06T11:54:24.359Z,21.11
2024-03-06T11:56:52.328Z,21.85
2024-03-06T11:59:22.328Z,22.72
2024-03-06T12:01:49.074Z,20.99
2024-03-06T12:04:15.813Z,20.60
2024-03-06T12:06:42.555Z,21.13
2024-03-06T12:09:12.300Z,21.08
2024-03-06T12:11:39.849Z,21.05
2024-03-06T12:14:06.831Z,21.83
2024-03-06T12:16:33.735Z,23.15
2024-03-06T12:19:00.932Z,24.49
2024-03-06T12:21:35.262Z,26.41
2024-03-06T12:24:05.500Z,25.46
2024-03-06T12:26:32.424Z,24.73
2024-03-06T12:29:09.438Z,23.63
2024-03-06T12:31:38.068Z,20.54
2024-03-06T12:34:05.772Z,20.31
2024-03-06T12:36:33.969Z,19.38
2024-03-06T12:39:01.572Z,21.95
2024-03-06T12:41:29.198Z,23.93
2024-03-06T12:43:57.220Z,24.00
2024-03-06T12:46:25.093Z,24.92
2024-03-06T12:48:52.376Z,26.21
2024-03-06T12:51:19.322Z,26.34
2024-03-06T12:53:46.414Z,27.12
2024-03-06T12:56:13.310Z,28.78
2024-03-06T12:58:40.106Z,29.70
2024-03-06T13:01:06.978Z,30.86
2024-03-06T13:03:33.807Z,29.11
2024-03-06T13:06:00.876Z,30.64
2024-03-06T13:08:27.866Z,31.75
2024-03-06T13:10:54.832Z,33.64
2024-03-06T13:13:21.940Z,31.02
2024-03-06T13:15:50.025Z,30.12
2024-03-06T13:18:17.754Z,27.99
2024-03-06T13:20:45.216Z,26.25
2024-03-06T13:23:12.924Z,23.50
2024-03-06T13:25:39.656Z,22.65
2024-03-06T13:30:33.445Z,22.15
2024-03-06T13:33:00.364Z,21.73
2024-03-06T13:35:27.603Z,21.07
2024-03-06T13:37:55.115Z,20.86
2024-03-06T13:40:22.028Z,20.35
2024-03-06T13:42:48.971Z,20.13
2024-03-06T13:45:15.991Z,19.86
2024-03-06T13:47:43.736Z,19.47
2024-03-06T13:50:12.053Z,19.20
2024-03-06T13:52:39.338Z,18.96
2024-03-06T13:55:06.668Z,18.63
2024-03-06T13:57:37.846Z,18.69
2024-03-06T14:00:06.353Z,18.83
2024-03-06T14:02:40.934Z,18.83
2024-03-06T14:05:08.089Z,18.97
2024-03-06T14:07:35.435Z,19.04
2024-03-06T14:10:05.193Z,18.84
2024-03-06T14:12:33.446Z,19.19
2024-03-06T14:15:00.293Z,19.07
2024-03-06T14:17:27.244Z,19.11
2024-03-06T14:19:54.269Z,19.02
2024-03-06T14:22:20.977Z,19.38
2024-03-06T14:24:47.712Z,19.35
2024-03-06T14:27:17.387Z,18.78
2024-03-06T14:29:44.718Z,18.63
2024-03-06T14:32:11.862Z,18.04
2024-03-06T14:34:38.829Z,18.58
2024-03-06T14:37:05.547Z,19.10
2024-03-06T14:39:32.388Z,19.44
2024-03-06T14:41:59.160Z,19.71
2024-03-06T14:44:25.886Z,19.56
2024-03-06T14:46:52.944Z,19.67
2024-03-06T14:49:19.714Z,19.08
2024-03-06T14:51:46.622Z,19.84
2024-03-06T14:54:13.516Z,20.07
2024-03-06T14:56:40.285Z,20.84
2024-03-06T14:59:06.989Z,21.58
2024-03-06T15:01:34.344Z,22.64
2024-03-06T15:04:01.070Z,23.26
2024-03-06T15:06:27.888Z,24.14
2024-03-06T15:08:54.762Z,23.04
2024-03-06T15:11:24.419Z,23.86
2024-03-06T15:13:51.752Z,24.09
2024-03-06T15:16:19.632Z,24.33
2024-03-06T15:18:48.270Z,22.90
2024-03-06T15:21:15.461Z,23.47
2024-03-06T15:23:42.282Z,23.84
2024-03-06T15:26:09.037Z,24.18
2024-03-06T15:28:35.744Z,23.01
2024-03-06T15:31:05.148Z,23.33
2024-03-06T15:33:32.223Z,24.33
2024-03-06T15:36:01.251Z,24.75
2024-03-06T15:38:28.469Z,24.84
2024-03-06T15:40:55.211Z,24.15
2024-03-06T15:43:22.977Z,23.82
2024-03-06T15:45:49.684Z,23.69
2024-03-06T15:48:16.650Z,23.32
2024-03-06T15:50:44.385Z,22.23
2024-03-06T15:53:11.451Z,21.18
2024-03-06T15:55:38.199Z,21.46
2024-03-06T15:58:05.316Z,20.89
2024-03-06T16:00:32.543Z,19.44
2024-03-06T16:02:59.796Z,18.78
2024-03-06T16:05:27.715Z,19.20
2024-03-06T16:08:04.477Z,17.89
2024-03-06T16:10:32.425Z,18.15
2024-03-06T16:12:59.138Z,17.39
2024-03-06T16:15:25.881Z,17.23
2024-03-06T16:17:53.102Z,17.09
2024-03-06T16:20:21.437Z,16.69
2024-03-06T16:22:48.398Z,16.26
2024-03-06T16:25:15.268Z,15.84
2024-03-06T16:27:42.049Z,16.04
2024-03-06T16:30:10.064Z,15.60
2024-03-06T16:32:37.087Z,15.32
2024-03-06T16:35:05.285Z,14.94
2024-03-06T16:37:32.098Z,14.75
2024-03-06T16:39:58.868Z,14.32
2024-03-06T16:42:25.679Z,14.51
2024-03-06T16:44:52.485Z,14.03
2024-03-06T16:47:19.298Z,14.01
2024-03-06T16:49:46.195Z,14.12
2024-03-06T16:52:14.611Z,14.34
2024-03-06T16:54:42.239Z,13.96
2024-03-06T16:57:12.274Z,13.89
2024-03-06T16:59:39.664Z,13.98
2024-03-06T17:02:06.563Z,14.42
2024-03-06T17:04:33.521Z,14.53
2024-03-06T17:07:02.391Z,14.41
2024-03-06T17:09:29.375Z,14.33
2024-03-06T17:11:56.394Z,14.43
2024-03-06T17:14:23.260Z,14.46
2024-03-06T17:16:50.350Z,14.24
2024-03-06T17:19:17.369Z,14.08
2024-03-06T17:21:44.103Z,13.84
2024-03-06T17:24:11.308Z,14.18
2024-03-06T17:26:39.773Z,14.02
2024-03-06T17:29:08.322Z,14.11
2024-03-06T17:31:38.689Z,14.16
2024-03-06T17:34:07.217Z,13.99
2024-03-06T17:36:37.316Z,14.11
2024-03-06T17:39:05.611Z,14.04
2024-03-06T17:41:32.374Z,13.88
2024-03-06T17:43:59.105Z,13.75
2024-03-06T17:46:27.134Z,13.55
2024-03-06T17:48:53.844Z,13.50
2024-03-06T17:51:22.917Z,13.31
2024-03-06T17:53:49.760Z,13.25
2024-03-06T17:56:16.674Z,13.17
2024-03-06T17:58:43.432Z,13.00
2024-03-06T18:01:10.264Z,12.77
2024-03-06T18:03:38.228Z,12.67
2024-03-06T18:06:05.029Z,12.77
2024-03-06T18:08:31.951Z,12.63
2024-03-06T18:10:58.703Z,12.82
2024-03-06T18:13:25.734Z,12.87
2024-03-06T18:15:53.453Z,12.81
2024-03-06T18:18:20.741Z,12.72
2024-03-06T18:20:47.576Z,12.77
2024-03-06T18:23:14.394Z,12.37
2024-03-06T18:25:41.122Z,12.56
2024-03-06T18:28:07.898Z,12.53
2024-03-06T18:30:34.632Z,12.58
2024-03-06T18:33:03.105Z,12.56
2024-03-06T18:35:30.358Z,12.64
2024-03-06T18:37:59.955Z,12.61
2024-03-06T18:40:29.297Z,12.66
2024-03-06T18:42:56.589Z,12.60
2024-03-06T18:45:23.391Z,12.56
2024-03-06T18:47:50.691Z,12.63
2024-03-06T18:50:18.370Z,12.66
2024-03-06T18:52:46.861Z,12.55
2024-03-06T18:55:14.357Z,12.30
2024-03-06T18:57:41.537Z,12.26
2024-03-06T19:00:09.194Z,12.41
2024-03-06T19:02:36.288Z,12.42
2024-03-06T19:05:03.188Z,12.50
2024-03-06T19:07:30.312Z,12.33
2024-03-06T19:09:58.019Z,12.38
2024-03-06T19:12:25.172Z,12.43
2024-03-06T19:14:52.299Z,12.47
2024-03-06T19:17:19.628Z,12.55
2024-03-06T19:19:47.090Z,12.54
2024-03-06T19:22:16.836Z,12.52
2024-03-06T19:24:44.432Z,12.27
2024-03-06T19:27:11.437Z,12.41
2024-03-06T19:29:38.750Z,12.34
2024-03-06T19:32:06.074Z,12.37
2024-03-06T19:34:35.068Z,12.29
2024-03-06T19:37:02.411Z,12.02
2024-03-06T19:39:29.558Z,12.11
2024-03-06T19:41:57.747Z,11.99
2024-03-06T19:44:28.268Z,11.97
2024-03-06T19:46:55.818Z,12.01
2024-03-06T19:49:22.692Z,12.04
2024-03-06T19:51:49.511Z,12.01
2024-03-06T19:54:16.903Z,11.98
2024-03-06T19:56:44.456Z,11.93
2024-03-06T19:59:11.940Z,11.87
2024-03-06T20:01:39.714Z,11.84
2024-03-06T20:04:07.768Z,11.74
2024-03-06T20:06:35.696Z,11.63
2024-03-06T20:09:06.557Z,11.67
2024-03-06T20:11:35.543Z,11.70
2024-03-06T20:14:03.086Z,11.55
2024-03-06T20:16:30.671Z,11.45
2024-03-06T20:18:58.183Z,11.64
2024-03-06T20:21:25.487Z,11.63
2024-03-06T20:23:53.068Z,11.70
2024-03-06T20:26:22.132Z,11.70
2024-03-06T20:28:52.254Z,11.83
2024-03-06T20:31:19.353Z,11.85
2024-03-06T20:33:50.278Z,11.65
2024-03-06T20:36:19.026Z,11.67
2024-03-06T20:38:46.104Z,11.65
2024-03-06T20:41:14.159Z,11.58
2024-03-06T20:43:41.515Z,11.54
2024-03-06T20:46:09.282Z,11.50
2024-03-06T20:48:37.575Z,11.38
2024-03-06T20:51:06.688Z,11.41
2024-03-06T20:53:33.588Z,11.28
2024-03-06T20:56:00.392Z,11.32
2024-03-06T20:58:27.243Z,11.31
2024-03-06T21:00:56.759Z,11.28
2024-03-06T21:03:23.747Z,11.26
2024-03-06T21:05:52.006Z,11.14
2024-03-06T21:08:19.025Z,11.26
2024-03-06T21:10:45.975Z,11.31
2024-03-06T21:13:13.157Z,11.33
2024-03-06T21:15:40.323Z,11.48
2024-03-06T21:18:07.363Z,11.47
2024-03-06T21:20:35.006Z,11.37
2024-03-06T21:23:01.925Z,11.40
2024-03-06T21:25:28.739Z,11.35
2024-03-06T21:27:55.815Z,11.27
2024-03-06T21:30:23.294Z,11.28
2024-03-06T21:32:50.140Z,11.28
2024-03-06T21:35:17.192Z,11.19
2024-03-06T21:37:44.052Z,11.00
2024-03-06T21:40:14.699Z,11.07
2024-03-06T21:42:46.701Z,10.96
2024-03-06T21:45:13.878Z,10.97
2024-03-06T21:47:40.826Z,11.08
2024-03-06T21:50:08.124Z,10.99
2024-03-06T21:52:34.959Z,10.95
2024-03-06T21:55:02.840Z,11.10
2024-03-06T21:57:29.610Z,10.97
2024-03-06T21:59:57.341Z,11.04
2024-03-06T22:02:24.368Z,11.03
2024-03-06T22:04:51.136Z,11.10
2024-03-06T22:07:18.006Z,10.99
2024-03-06T22:09:47.305Z,11.15
2024-03-06T22:12:14.079Z,11.22
2024-03-06T22:14:45.283Z,11.28
2024-03-06T22:17:12.525Z,11.13
2024-03-06T22:19:41.044Z,11.26
2024-03-06T22:22:08.110Z,11.28
2024-03-06T22:24:34.773Z,11.30
2024-03-06T22:27:02.142Z,11.27
2024-03-06T22:29:29.044Z,11.24
2024-03-06T22:31:55.743Z,11.17
2024-03-06T22:34:22.562Z,11.15
2024-03-06T22:36:49.302Z,11.04
2024-03-06T22:39:16.023Z,11.18
2024-03-06T22:41:42.946Z,11.20
2024-03-06T22:44:09.762Z,11.06
2024-03-06T22:46:47.182Z,11.16
2024-03-06T22:49:18.752Z,11.18
2024-03-06T22:51:45.445Z,11.18
2024-03-06T22:54:12.368Z,11.21
2024-03-06T22:56:40.832Z,11.01
2024-03-06T22:59:08.093Z,10.90
2024-03-06T23:01:35.008Z,11.00
2024-03-06T23:04:02.255Z,11.02
2024-03-06T23:06:28.924Z,10.93
2024-03-06T23:08:55.771Z,10.89
2024-03-06T23:11:23.043Z,10.89
2024-03-06T23:13:49.920Z,10.92
2024-03-06T23:16:16.684Z,11.06
2024-03-06T23:18:43.699Z,10.77
2024-03-06T23:21:11.002Z,10.70
2024-03-06T23:23:37.853Z,10.75
2024-03-06T23:26:04.935Z,10.89
2024-03-06T23:28:31.709Z,10.94
2024-03-06T23:30:59.364Z,10.97
2024-03-06T23:33:26.134Z,11.07
2024-03-06T23:35:54.370Z,11.02
2024-03-06T23:38:21.147Z,11.03
2024-03-06T23:40:47.910Z,11.10
2024-03-06T23:43:14.664Z,10.99
2024-03-06T23:45:41.406Z,11.11
2024-03-06T23:48:08.167Z,11.07
2024-03-06T23:50:35.157Z,11.04
2024-03-06T23:53:01.993Z,11.18
2024-03-06T23:55:29.976Z,11.02
2024-03-06T23:57:56.947Z,10.93
